Grand Forks, ND (58201)

9:10 AM CDT on July 29, 2015 (GMT -0500)
KNDGRAND8 | | Change Station
CLOSE
Current Station
Personal Weather Station
Location: Grand Forks, ND
Elevation: 830 ft
Nearby Weather Stations
Active Advisory: Wind Advisory Active Notice: Public Information Statement

Elev 830 ft 47.94 °N, 97.06 °W | Updated 8 seconds ago

Overcast
Overcast
67.9 °F
Feels Like 67.9 °F
N
9.6
Wind Variable Wind from WNW
Gusts 9.6 mph

Today
High -- | Low -- °F
--% Chance of Precip.
Yesterday
High -- | Low -- °F
Precip. -- in
6:00 AM 9:07 PM
Waxing Gibbous, 95% visible
Pressure 29.70 in
Visibility 10.0 miles
Clouds Overcast 4300 ft
Dew Point 55 °F
Humidity 64%
Rainfall 0.00 in
Snow Depth Not available.
UV 1 out of 12
Pollen 8.20 out of 12
Air Quality Not available.
Flu Activity Not available.
METAR KGFK 291353Z 29024G32KT 10SM OVC043 21/12 A2970 RMK AO2 PK WND 27035/1336 SLP055 T02060117

More Conditions Fewer Conditions

Pressure 29.70 in
Visibility 10.0 miles
Clouds Overcast 4300 ft
Dew Point 55 °F
Humidity 64%
Rainfall 0.00 in
Snow Depth Not available.
UV 1 out of 12
Pollen 8.20 out of 12
Air Quality Not available.
Flu Activity Not available.
METAR KGFK 291353Z 29024G32KT 10SM OVC043 21/12 A2970 RMK AO2 PK WND 27035/1336 SLP055 T02060117

More Conditions Fewer Conditions

10-Day Weather Forecast

×

Almanac

Astronomy

Jul. 29, 2015 Rise Set
Actual Time
Civil Twilight
Nautical Twilight
Astronomical Twilight
Moon
Length of Visible Light
Length of Day
Tomorrow will be .
, % of the Moon is Illuminated

Today's Extremes

State Highs State Lows

Community

WunderPhotos

Upload Photos

1,842,110 photos uploaded!

WunderBlogs® & News

Nearby

Air Quality

  Air Quality AQ Index Pollutant
Not available.

Snow Depth

Station Depth Elevation

Earthquake Activity

City Distance Mag. Time & Date
Minimum magnitude displayed is 2.5.

Coastal Water Temperatures

Place Temperature

Stations

Nearby Weather Stations

Station Location Temp. Windchill Dew Point Humidity Wind Precip. Elev Updated Type
                   
Wind Advisory
Statement as of 4:00 AM CDT on July 29, 2015

... Wind Advisory in effect until 7 PM CDT this evening...

The National Weather Service in Grand Forks has issued a Wind
Advisory... which is in effect until 7 PM CDT this evening.

* Winds... west around 30 mph with gusts up to 50 mph.

* Timing... strong westerly winds will continue today.

Precautionary/preparedness actions...

A Wind Advisory means that winds of 35 mph are expected. Winds
this strong can make driving difficult... especially for high
profile vehicles. Use extra caution.